sensor_id;sensor_type;location;lat;lon;timestamp;temperature;humidity
8269;DHT22;4174;48.304;16.364;2023-08-21T00:00:19;23.90;99.90
8269;DHT22;4174;48.304;16.364;2023-08-21T00:06:23;23.90;99.90
8269;DHT22;4174;48.304;16.364;2023-08-21T00:12:27;23.80;99.90
8269;DHT22;4174;48.304;16.364;2023-08-21T00:18:31;23.80;99.90
8269;DHT22;4174;48.304;16.364;2023-08-21T00:24:34;23.80;99.90
8269;DHT22;4174;48.304;16.364;2023-08-21T00:30:38;23.80;99.90
8269;DHT22;4174;48.304;16.364;2023-08-21T00:36:41;23.80;99.90
8269;DHT22;4174;48.304;16.364;2023-08-21T00:42:45;23.80;99.90
8269;DHT22;4174;48.304;16.364;2023-08-21T00:48:49;23.70;99.90
8269;DHT22;4174;48.304;16.364;2023-08-21T00:54:52;23.80;99.90
8269;DHT22;4174;48.304;16.364;2023-08-21T01:00:56;23.60;99.90
8269;DHT22;4174;48.304;16.364;2023-08-21T01:06:58;23.50;99.90
8269;DHT22;4174;48.304;16.364;2023-08-21T01:13:07;23.30;99.90
8269;DHT22;4174;48.304;16.364;2023-08-21T01:19:09;23.10;99.90
8269;DHT22;4174;48.304;16.364;2023-08-21T01:25:11;23.10;99.90
8269;DHT22;4174;48.304;16.364;2023-08-21T01:31:21;23.00;99.90
8269;DHT22;4174;48.304;16.364;2023-08-21T01:37:36;22.90;99.90
8269;DHT22;4174;48.304;16.364;2023-08-21T01:43:39;23.00;99.90
8269;DHT22;4174;48.304;16.364;2023-08-21T01:49:43;22.80;99.90
8269;DHT22;4174;48.304;16.364;2023-08-21T01:55:47;22.70;99.90
8269;DHT22;4174;48.304;16.364;2023-08-21T02:01:50;22.60;99.90
8269;DHT22;4174;48.304;16.364;2023-08-21T02:07:54;22.70;99.90
8269;DHT22;4174;48.304;16.364;2023-08-21T02:13:57;22.80;99.90
8269;DHT22;4174;48.304;16.364;2023-08-21T02:20:01;22.60;99.90
8269;DHT22;4174;48.304;16.364;2023-08-21T02:26:05;22.40;99.90
8269;DHT22;4174;48.304;16.364;2023-08-21T02:32:08;22.20;99.90
8269;DHT22;4174;48.304;16.364;2023-08-21T02:38:12;22.30;99.90
8269;DHT22;4174;48.304;16.364;2023-08-21T02:44:16;22.20;99.90
8269;DHT22;4174;48.304;16.364;2023-08-21T02:50:20;22.20;99.90
8269;DHT22;4174;48.304;16.364;2023-08-21T02:56:24;22.10;99.90
8269;DHT22;4174;48.304;16.364;2023-08-21T03:02:27;22.10;99.90
8269;DHT22;4174;48.304;16.364;2023-08-21T03:08:32;22.10;99.90
8269;DHT22;4174;48.304;16.364;2023-08-21T03:14:36;22.10;99.90
8269;DHT22;4174;48.304;16.364;2023-08-21T03:20:44;22.00;99.90
8269;DHT22;4174;48.304;16.364;2023-08-21T03:26:47;22.00;99.90
8269;DHT22;4174;48.304;16.364;2023-08-21T03:32:50;22.10;99.90
8269;DHT22;4174;48.304;16.364;2023-08-21T03:38:54;22.10;99.90
8269;DHT22;4174;48.304;16.364;2023-08-21T03:44:57;22.10;99.90
8269;DHT22;4174;48.304;16.364;2023-08-21T03:51:01;22.00;99.90
8269;DHT22;4174;48.304;16.364;2023-08-21T03:57:05;22.10;99.90
8269;DHT22;4174;48.304;16.364;2023-08-21T04:03:08;22.10;99.90
8269;DHT22;4174;48.304;16.364;2023-08-21T04:09:12;22.10;99.90
8269;DHT22;4174;48.304;16.364;2023-08-21T04:15:16;22.30;99.90
8269;DHT22;4174;48.304;16.364;2023-08-21T04:21:21;22.40;99.90
8269;DHT22;4174;48.304;16.364;2023-08-21T04:27:25;22.60;99.90
8269;DHT22;4174;48.304;16.364;2023-08-21T04:33:29;22.80;99.90
8269;DHT22;4174;48.304;16.364;2023-08-21T04:39:34;22.90;99.90
8269;DHT22;4174;48.304;16.364;2023-08-21T04:45:38;23.00;99.90
8269;DHT22;4174;48.304;16.364;2023-08-21T04:51:42;23.00;99.90
8269;DHT22;4174;48.304;16.364;2023-08-21T04:57:44;23.00;99.90
8269;DHT22;4174;48.304;16.364;2023-08-21T05:03:49;23.20;99.90
8269;DHT22;4174;48.304;16.364;2023-08-21T05:09:53;23.10;99.90
8269;DHT22;4174;48.304;16.364;2023-08-21T05:15:57;23.30;99.90
8269;DHT22;4174;48.304;16.364;2023-08-21T05:22:00;23.60;99.90
8269;DHT22;4174;48.304;16.364;2023-08-21T05:28:04;24.00;99.90
8269;DHT22;4174;48.304;16.364;2023-08-21T05:34:07;24.60;99.90
8269;DHT22;4174;48.304;16.364;2023-08-21T05:40:11;25.20;99.90
8269;DHT22;4174;48.304;16.364;2023-08-21T05:46:15;25.60;99.90
8269;DHT22;4174;48.304;16.364;2023-08-21T05:52:19;25.90;99.90
8269;DHT22;4174;48.304;16.364;2023-08-21T05:58:22;26.00;99.90
8269;DHT22;4174;48.304;16.364;2023-08-21T06:04:25;26.10;99.90
8269;DHT22;4174;48.304;16.364;2023-08-21T06:10:30;26.20;99.90
8269;DHT22;4174;48.304;16.364;2023-08-21T06:16:32;26.30;99.90
8269;DHT22;4174;48.304;16.364;2023-08-21T06:22:36;26.70;99.90
8269;DHT22;4174;48.304;16.364;2023-08-21T06:28:39;26.70;99.90
8269;DHT22;4174;48.304;16.364;2023-08-21T06:34:44;26.60;99.90
8269;DHT22;4174;48.304;16.364;2023-08-21T06:40:48;27.00;99.90
8269;DHT22;4174;48.304;16.364;2023-08-21T06:46:51;28.20;99.90
8269;DHT22;4174;48.304;16.364;2023-08-21T06:52:56;29.20;99.90
8269;DHT22;4174;48.304;16.364;2023-08-21T06:59:02;31.40;99.90
8269;DHT22;4174;48.304;16.364;2023-08-21T07:05:06;31.50;99.90
8269;DHT22;4174;48.304;16.364;2023-08-21T07:11:10;33.40;99.90
8269;DHT22;4174;48.304;16.364;2023-08-21T07:17:14;33.40;99.90
8269;DHT22;4174;48.304;16.364;2023-08-21T07:23:17;33.70;99.90
8269;DHT22;4174;48.304;16.364;2023-08-21T07:29:22;34.00;99.90
8269;DHT22;4174;48.304;16.364;2023-08-21T07:35:26;34.00;99.90
8269;DHT22;4174;48.304;16.364;2023-08-21T07:41:31;34.50;99.90
8269;DHT22;4174;48.304;16.364;2023-08-21T07:47:35;35.00;98.80
8269;DHT22;4174;48.304;16.364;2023-08-21T07:53:40;35.40;94.70
8269;DHT22;4174;48.304;16.364;2023-08-21T07:59:44;35.40;94.70
8269;DHT22;4174;48.304;16.364;2023-08-21T08:05:47;35.70;94.30
8269;DHT22;4174;48.304;16.364;2023-08-21T08:11:51;36.00;92.10
8269;DHT22;4174;48.304;16.364;2023-08-21T08:17:56;36.10;91.40
8269;DHT22;4174;48.304;16.364;2023-08-21T08:23:58;36.80;88.10
8269;DHT22;4174;48.304;16.364;2023-08-21T08:30:02;37.20;87.30
8269;DHT22;4174;48.304;16.364;2023-08-21T08:36:05;38.10;81.70
8269;DHT22;4174;48.304;16.364;2023-08-21T08:42:09;38.60;78.90
8269;DHT22;4174;48.304;16.364;2023-08-21T08:48:13;38.10;77.70
8269;DHT22;4174;48.304;16.364;2023-08-21T08:54:16;38.10;77.50
8269;DHT22;4174;48.304;16.364;2023-08-21T09:00:20;38.90;80.50
8269;DHT22;4174;48.304;16.364;2023-08-21T09:06:22;39.40;73.90
8269;DHT22;4174;48.304;16.364;2023-08-21T09:12:27;39.90;73.30
8269;DHT22;4174;48.304;16.364;2023-08-21T09:18:30;39.70;72.20
8269;DHT22;4174;48.304;16.364;2023-08-21T09:24:33;39.50;64.10
8269;DHT22;4174;48.304;16.364;2023-08-21T09:30:44;39.30;63.30
8269;DHT22;4174;48.304;16.364;2023-08-21T09:36:53;39.90;58.30
8269;DHT22;4174;48.304;16.364;2023-08-21T09:42:52;40.50;59.00
8269;DHT22;4174;48.304;16.364;2023-08-21T09:48:54;40.50;59.20
8269;DHT22;4174;48.304;16.364;2023-08-21T09:54:56;39.90;54.90
8269;DHT22;4174;48.304;16.364;2023-08-21T10:00:59;40.10;61.40
8269;DHT22;4174;48.304;16.364;2023-08-21T10:07:02;40.40;57.50
8269;DHT22;4174;48.304;16.364;2023-08-21T10:13:05;40.40;54.30
8269;DHT22;4174;48.304;16.364;2023-08-21T10:19:08;40.40;57.70
8269;DHT22;4174;48.304;16.364;2023-08-21T10:25:17;40.90;53.70
8269;DHT22;4174;48.304;16.364;2023-08-21T10:31:32;40.70;51.00
8269;DHT22;4174;48.304;16.364;2023-08-21T10:37:45;40.80;51.10
8269;DHT22;4174;48.304;16.364;2023-08-21T10:43:43;40.80;51.00
8269;DHT22;4174;48.304;16.364;2023-08-21T10:49:47;41.30;53.90
8269;DHT22;4174;48.304;16.364;2023-08-21T10:55:54;41.20;47.40
8269;DHT22;4174;48.304;16.364;2023-08-21T11:01:56;40.00;51.30
8269;DHT22;4174;48.304;16.364;2023-08-21T11:08:00;40.70;53.60
8269;DHT22;4174;48.304;16.364;2023-08-21T11:14:03;40.10;51.90
8269;DHT22;4174;48.304;16.364;2023-08-21T11:20:08;40.30;49.80
8269;DHT22;4174;48.304;16.364;2023-08-21T11:26:13;40.60;49.30
8269;DHT22;4174;48.304;16.364;2023-08-21T11:32:17;40.60;49.20
8269;DHT22;4174;48.304;16.364;2023-08-21T11:38:21;41.30;50.90
8269;DHT22;4174;48.304;16.364;2023-08-21T11:44:23;40.50;44.10
8269;DHT22;4174;48.304;16.364;2023-08-21T11:50:27;40.50;44.20
8269;DHT22;4174;48.304;16.364;2023-08-21T11:56:30;40.70;50.10
8269;DHT22;4174;48.304;16.364;2023-08-21T12:02:34;41.20;49.60
8269;DHT22;4174;48.304;16.364;2023-08-21T12:08:38;40.60;48.10
8269;DHT22;4174;48.304;16.364;2023-08-21T12:14:40;40.50;48.30
8269;DHT22;4174;48.304;16.364;2023-08-21T12:20:45;40.70;49.20
8269;DHT22;4174;48.304;16.364;2023-08-21T12:26:49;40.50;45.10
8269;DHT22;4174;48.304;16.364;2023-08-21T12:32:52;39.50;44.00
8269;DHT22;4174;48.304;16.364;2023-08-21T12:38:57;39.40;42.90
8269;DHT22;4174;48.304;16.364;2023-08-21T12:45:01;39.20;39.50
8269;DHT22;4174;48.304;16.364;2023-08-21T12:51:04;39.70;43.60
8269;DHT22;4174;48.304;16.364;2023-08-21T12:57:09;39.60;42.20
8269;DHT22;4174;48.304;16.364;2023-08-21T13:03:13;39.70;41.60
8269;DHT22;4174;48.304;16.364;2023-08-21T13:09:16;40.10;44.10
8269;DHT22;4174;48.304;16.364;2023-08-21T13:15:20;40.40;45.20
8269;DHT22;4174;48.304;16.364;2023-08-21T13:21:24;38.90;40.30
8269;DHT22;4174;48.304;16.364;2023-08-21T13:27:27;39.20;44.60
8269;DHT22;4174;48.304;16.364;2023-08-21T13:33:32;39.90;43.50
8269;DHT22;4174;48.304;16.364;2023-08-21T13:39:35;39.90;43.50
8269;DHT22;4174;48.304;16.364;2023-08-21T13:45:39;39.50;40.10
8269;DHT22;4174;48.304;16.364;2023-08-21T13:51:43;38.40;38.60
8269;DHT22;4174;48.304;16.364;2023-08-21T13:57:47;38.40;38.60
8269;DHT22;4174;48.304;16.364;2023-08-21T14:03:52;38.50;40.90
8269;DHT22;4174;48.304;16.364;2023-08-21T14:09:55;38.60;41.00
8269;DHT22;4174;48.304;16.364;2023-08-21T14:15:59;37.70;42.00
8269;DHT22;4174;48.304;16.364;2023-08-21T14:22:03;37.20;45.20
8269;DHT22;4174;48.304;16.364;2023-08-21T14:28:09;37.20;45.50
8269;DHT22;4174;48.304;16.364;2023-08-21T14:34:13;37.30;44.90
8269;DHT22;4174;48.304;16.364;2023-08-21T14:40:15;36.80;44.00
8269;DHT22;4174;48.304;16.364;2023-08-21T14:46:19;36.30;44.20
8269;DHT22;4174;48.304;16.364;2023-08-21T14:52:23;35.90;46.60
8269;DHT22;4174;48.304;16.364;2023-08-21T14:58:25;36.20;46.10
8269;DHT22;4174;48.304;16.364;2023-08-21T15:04:29;35.50;46.50
8269;DHT22;4174;48.304;16.364;2023-08-21T15:10:32;35.40;48.10
8269;DHT22;4174;48.304;16.364;2023-08-21T15:16:36;35.30;47.00
8269;DHT22;4174;48.304;16.364;2023-08-21T15:22:39;34.90;47.10
8269;DHT22;4174;48.304;16.364;2023-08-21T15:28:42;35.00;47.10
8269;DHT22;4174;48.304;16.364;2023-08-21T15:34:46;35.10;48.20
8269;DHT22;4174;48.304;16.364;2023-08-21T15:40:50;35.10;47.00
8269;DHT22;4174;48.304;16.364;2023-08-21T15:46:53;34.90;46.90
8269;DHT22;4174;48.304;16.364;2023-08-21T15:52:57;34.90;45.30
8269;DHT22;4174;48.304;16.364;2023-08-21T15:59:00;34.80;46.50
8269;DHT22;4174;48.304;16.364;2023-08-21T16:05:04;34.80;46.60
8269;DHT22;4174;48.304;16.364;2023-08-21T16:11:08;34.60;44.40
8269;DHT22;4174;48.304;16.364;2023-08-21T16:17:12;34.50;45.10
8269;DHT22;4174;48.304;16.364;2023-08-21T16:23:15;34.50;45.00
8269;DHT22;4174;48.304;16.364;2023-08-21T16:29:19;34.50;45.50
8269;DHT22;4174;48.304;16.364;2023-08-21T16:35:23;34.50;45.70
8269;DHT22;4174;48.304;16.364;2023-08-21T16:41:25;34.50;46.20
8269;DHT22;4174;48.304;16.364;2023-08-21T16:47:29;34.30;45.80
8269;DHT22;4174;48.304;16.364;2023-08-21T16:53:32;34.10;46.30
8269;DHT22;4174;48.304;16.364;2023-08-21T16:59:36;34.10;46.10
8269;DHT22;4174;48.304;16.364;2023-08-21T17:05:39;34.00;46.70
8269;DHT22;4174;48.304;16.364;2023-08-21T17:11:43;33.90;47.00
8269;DHT22;4174;48.304;16.364;2023-08-21T17:17:46;33.80;47.90
8269;DHT22;4174;48.304;16.364;2023-08-21T17:23:50;33.70;48.70
8269;DHT22;4174;48.304;16.364;2023-08-21T17:29:53;33.50;49.00
8269;DHT22;4174;48.304;16.364;2023-08-21T17:35:57;33.40;50.60
8269;DHT22;4174;48.304;16.364;2023-08-21T17:42:00;33.20;51.70
8269;DHT22;4174;48.304;16.364;2023-08-21T17:48:04;32.90;52.90
8269;DHT22;4174;48.304;16.364;2023-08-21T17:54:08;32.60;53.70
8269;DHT22;4174;48.304;16.364;2023-08-21T18:00:13;32.10;65.80
8269;DHT22;4174;48.304;16.364;2023-08-21T18:06:19;31.70;71.00
8269;DHT22;4174;48.304;16.364;2023-08-21T18:12:23;31.30;75.50
8269;DHT22;4174;48.304;16.364;2023-08-21T18:18:27;31.30;75.50
8269;DHT22;4174;48.304;16.364;2023-08-21T18:24:30;30.90;77.80
8269;DHT22;4174;48.304;16.364;2023-08-21T18:30:34;30.70;75.20
8269;DHT22;4174;48.304;16.364;2023-08-21T18:36:43;30.40;82.50
8269;DHT22;4174;48.304;16.364;2023-08-21T18:42:46;30.20;85.20
8269;DHT22;4174;48.304;16.364;2023-08-21T18:48:50;30.10;80.90
8269;DHT22;4174;48.304;16.364;2023-08-21T18:54:54;29.80;71.90
8269;DHT22;4174;48.304;16.364;2023-08-21T19:00:57;29.80;71.70
8269;DHT22;4174;48.304;16.364;2023-08-21T19:07:01;29.80;68.60
8269;DHT22;4174;48.304;16.364;2023-08-21T19:13:06;29.80;69.00
8269;DHT22;4174;48.304;16.364;2023-08-21T19:19:10;29.80;68.90
8269;DHT22;4174;48.304;16.364;2023-08-21T19:25:14;29.80;68.40
8269;DHT22;4174;48.304;16.364;2023-08-21T19:31:17;29.80;71.80
8269;DHT22;4174;48.304;16.364;2023-08-21T19:37:21;29.70;68.50
8269;DHT22;4174;48.304;16.364;2023-08-21T19:43:26;29.70;68.20
8269;DHT22;4174;48.304;16.364;2023-08-21T19:49:30;29.70;70.60
8269;DHT22;4174;48.304;16.364;2023-08-21T19:55:33;29.60;68.90
8269;DHT22;4174;48.304;16.364;2023-08-21T20:01:37;29.60;68.50
8269;DHT22;4174;48.304;16.364;2023-08-21T20:07:40;29.50;68.30
8269;DHT22;4174;48.304;16.364;2023-08-21T20:13:44;29.50;69.00
8269;DHT22;4174;48.304;16.364;2023-08-21T20:19:47;29.40;72.70
8269;DHT22;4174;48.304;16.364;2023-08-21T20:25:50;29.30;75.30
8269;DHT22;4174;48.304;16.364;2023-08-21T20:31:54;29.10;77.90
8269;DHT22;4174;48.304;16.364;2023-08-21T20:37:57;28.90;81.10
8269;DHT22;4174;48.304;16.364;2023-08-21T20:44:01;28.70;81.80
8269;DHT22;4174;48.304;16.364;2023-08-21T20:50:06;28.70;79.20
8269;DHT22;4174;48.304;16.364;2023-08-21T20:56:10;28.60;82.00
8269;DHT22;4174;48.304;16.364;2023-08-21T21:02:14;28.60;81.40
8269;DHT22;4174;48.304;16.364;2023-08-21T21:08:18;28.40;86.80
8269;DHT22;4174;48.304;16.364;2023-08-21T21:14:21;28.30;89.30
8269;DHT22;4174;48.304;16.364;2023-08-21T21:20:25;28.10;83.20
8269;DHT22;4174;48.304;16.364;2023-08-21T21:26:29;28.00;92.00
8269;DHT22;4174;48.304;16.364;2023-08-21T21:32:32;27.80;93.60
8269;DHT22;4174;48.304;16.364;2023-08-21T21:38:36;27.70;95.40
8269;DHT22;4174;48.304;16.364;2023-08-21T21:44:39;27.60;98.90
8269;DHT22;4174;48.304;16.364;2023-08-21T21:50:45;27.40;99.90
8269;DHT22;4174;48.304;16.364;2023-08-21T21:56:49;27.20;99.90
8269;DHT22;4174;48.304;16.364;2023-08-21T22:02:53;26.80;99.90
8269;DHT22;4174;48.304;16.364;2023-08-21T22:08:57;26.80;99.90
8269;DHT22;4174;48.304;16.364;2023-08-21T22:15:01;26.70;99.90
8269;DHT22;4174;48.304;16.364;2023-08-21T22:21:05;26.60;99.90
8269;DHT22;4174;48.304;16.364;2023-08-21T22:27:08;26.40;99.90
8269;DHT22;4174;48.304;16.364;2023-08-21T22:33:12;26.40;99.90
8269;DHT22;4174;48.304;16.364;2023-08-21T22:39:16;26.20;99.90
8269;DHT22;4174;48.304;16.364;2023-08-21T22:45:21;26.10;99.90
8269;DHT22;4174;48.304;16.364;2023-08-21T22:51:26;26.00;99.90
8269;DHT22;4174;48.304;16.364;2023-08-21T22:57:30;25.90;99.90
8269;DHT22;4174;48.304;16.364;2023-08-21T23:03:33;25.80;99.90
8269;DHT22;4174;48.304;16.364;2023-08-21T23:09:39;25.80;99.90
8269;DHT22;4174;48.304;16.364;2023-08-21T23:15:44;25.60;99.90
8269;DHT22;4174;48.304;16.364;2023-08-21T23:21:47;25.50;99.90
8269;DHT22;4174;48.304;16.364;2023-08-21T23:27:51;25.50;99.90
8269;DHT22;4174;48.304;16.364;2023-08-21T23:33:55;25.40;99.90
8269;DHT22;4174;48.304;16.364;2023-08-21T23:40:00;25.20;99.90
8269;DHT22;4174;48.304;16.364;2023-08-21T23:46:03;25.20;99.90
8269;DHT22;4174;48.304;16.364;2023-08-21T23:52:06;25.10;99.90
8269;DHT22;4174;48.304;16.364;2023-08-21T23:58:09;24.90;99.90
